createdAt,value
2022-09-04T00:00:08.620Z,15.65
2022-09-04T00:01:06.099Z,15.64
2022-09-04T00:02:01.775Z,15.83
2022-09-04T00:03:02.709Z,15.85
2022-09-04T00:03:54.593Z,16.00
2022-09-04T00:04:32.695Z,16.01
2022-09-04T00:05:24.112Z,15.95
2022-09-04T00:05:58.914Z,15.83
2022-09-04T00:06:42.723Z,15.81
2022-09-04T00:07:36.000Z,15.85
2022-09-04T00:08:50.154Z,15.63
2022-09-04T00:09:37.091Z,15.51
2022-09-04T00:10:19.460Z,15.62
2022-09-04T00:11:04.747Z,15.63
2022-09-04T00:11:48.916Z,15.63
2022-09-04T00:12:33.772Z,15.50
2022-09-04T00:13:36.688Z,15.60
2022-09-04T00:14:14.835Z,15.57
2022-09-04T00:14:55.316Z,15.71
2022-09-04T00:15:33.294Z,15.83
2022-09-04T00:16:20.147Z,15.88
2022-09-04T00:17:02.106Z,15.89
2022-09-04T00:17:52.767Z,15.92
2022-09-04T00:18:36.993Z,15.93
2022-09-04T00:19:14.626Z,16.01
2022-09-04T00:19:59.597Z,15.95
2022-09-04T00:20:42.893Z,15.94
2022-09-04T00:21:26.930Z,15.96
2022-09-04T00:22:01.317Z,15.97
2022-09-04T00:22:54.126Z,15.86
2022-09-04T00:23:44.714Z,15.77
2022-09-04T00:24:25.177Z,15.82
2022-09-04T00:25:17.190Z,15.83
2022-09-04T00:25:56.449Z,15.81
2022-09-04T00:26:43.563Z,15.90
2022-09-04T00:27:24.818Z,15.88
2022-09-04T00:28:32.190Z,15.89
2022-09-04T00:29:19.463Z,15.75
2022-09-04T00:30:08.323Z,15.83
2022-09-04T00:30:55.493Z,15.77
2022-09-04T00:31:37.199Z,15.79
2022-09-04T00:32:34.892Z,15.84
2022-09-04T00:33:19.241Z,16.00
2022-09-04T00:34:10.205Z,16.14
2022-09-04T00:34:57.498Z,16.09
2022-09-04T00:35:37.948Z,16.05
2022-09-04T00:36:13.589Z,16.06
2022-09-04T00:36:50.890Z,16.07
2022-09-04T00:37:29.543Z,16.08
2022-09-04T00:38:40.251Z,16.09
2022-09-04T00:39:21.349Z,16.10
2022-09-04T00:40:21.477Z,16.08
2022-09-04T00:41:07.780Z,16.10
2022-09-04T00:42:04.217Z,16.17
2022-09-04T00:43:06.673Z,16.20
2022-09-04T00:43:47.589Z,16.08
2022-09-04T00:44:40.434Z,16.14
2022-09-04T00:45:28.015Z,16.18
2022-09-04T00:46:18.400Z,16.17
2022-09-04T00:46:59.098Z,16.30
2022-09-04T00:47:33.659Z,16.36
2022-09-04T00:48:43.691Z,16.40
2022-09-04T00:49:29.074Z,16.33
2022-09-04T00:50:30.368Z,16.27
2022-09-04T00:51:17.752Z,16.21
2022-09-04T00:51:56.829Z,16.14
2022-09-04T00:52:48.544Z,16.07
2022-09-04T00:53:31.185Z,16.01
2022-09-04T00:54:21.998Z,15.95
2022-09-04T00:55:32.450Z,15.89
2022-09-04T00:56:04.610Z,15.84
2022-09-04T00:56:54.985Z,15.61
2022-09-04T00:57:29.353Z,15.67
2022-09-04T00:58:20.371Z,15.77
2022-09-04T00:59:07.301Z,15.83
2022-09-04T00:59:47.867Z,15.70
2022-09-04T01:00:21.100Z,15.71
2022-09-04T01:00:56.974Z,15.78
2022-09-04T01:01:29.934Z,15.76
2022-09-04T01:02:23.712Z,15.83
2022-09-04T01:03:07.846Z,15.90
2022-09-04T01:03:45.562Z,15.92
2022-09-04T01:04:48.670Z,16.00
2022-09-04T01:05:45.542Z,16.00
2022-09-04T01:06:46.588Z,16.01
2022-09-04T01:07:40.078Z,16.00
2022-09-04T01:08:20.483Z,16.05
2022-09-04T01:09:22.683Z,16.11
2022-09-04T01:10:19.362Z,16.10
2022-09-04T01:11:03.902Z,16.12
2022-09-04T01:12:10.881Z,16.20
2022-09-04T01:12:46.009Z,16.17
2022-09-04T01:13:41.515Z,16.07
2022-09-04T01:14:41.387Z,16.00
2022-09-04T01:15:30.249Z,16.10
2022-09-04T01:16:23.496Z,16.14
2022-09-04T01:17:30.222Z,16.21
2022-09-04T01:18:16.966Z,15.82
2022-09-04T01:19:26.572Z,15.85
2022-09-04T01:20:06.114Z,15.98
2022-09-04T01:20:56.448Z,16.06
2022-09-04T01:21:47.712Z,16.11
2022-09-04T01:22:46.018Z,16.14
2022-09-04T01:23:36.325Z,16.14
2022-09-04T01:24:29.661Z,16.17
2022-09-04T01:25:25.799Z,16.21
2022-09-04T01:26:20.784Z,16.31
2022-09-04T01:27:09.976Z,16.26
2022-09-04T01:28:04.859Z,16.34
2022-09-04T01:28:43.808Z,16.37
2022-09-04T01:29:46.000Z,16.35
2022-09-04T01:30:20.092Z,16.37
2022-09-04T01:31:14.043Z,16.33
2022-09-04T01:32:01.390Z,16.28
2022-09-04T01:33:17.959Z,16.21
2022-09-04T01:33:58.217Z,16.19
2022-09-04T01:35:02.561Z,16.19
2022-09-04T01:35:58.613Z,16.33
2022-09-04T01:37:05.818Z,16.39
2022-09-04T01:38:02.686Z,16.44
2022-09-04T01:39:06.056Z,16.46
2022-09-04T01:39:43.497Z,16.36
2022-09-04T01:40:35.258Z,16.41
2022-09-04T01:41:27.560Z,16.41
2022-09-04T01:42:29.932Z,16.38
2022-09-04T01:43:13.623Z,16.45
2022-09-04T01:43:45.564Z,16.46
2022-09-04T01:44:17.497Z,16.46
2022-09-04T01:44:50.015Z,16.48
2022-09-04T01:45:38.251Z,16.53
2022-09-04T01:46:32.902Z,16.52
2022-09-04T01:47:32.123Z,16.52
2022-09-04T01:48:08.065Z,16.58
2022-09-04T01:49:14.262Z,16.58
2022-09-04T01:49:58.281Z,16.51
2022-09-04T01:50:33.037Z,16.61
2022-09-04T01:51:45.294Z,16.69
2022-09-04T01:52:46.251Z,16.67
2022-09-04T01:53:25.359Z,16.64
2022-09-04T01:54:35.237Z,16.62
2022-09-04T01:55:16.968Z,16.57
2022-09-04T01:56:04.177Z,16.64
2022-09-04T01:56:42.362Z,16.62
2022-09-04T01:57:45.128Z,16.63
2022-09-04T01:58:48.228Z,16.78
2022-09-04T01:59:30.147Z,16.87
2022-09-04T02:00:10.993Z,16.81
2022-09-04T02:01:21.189Z,16.75
2022-09-04T02:02:00.781Z,16.59
2022-09-04T02:02:53.222Z,16.57
2022-09-04T02:03:46.492Z,16.67
2022-09-04T02:04:54.613Z,16.79
2022-09-04T02:05:53.853Z,16.88
2022-09-04T02:06:33.485Z,16.96
2022-09-04T02:07:30.132Z,16.93
2022-09-04T02:08:21.861Z,16.83
2022-09-04T02:09:02.650Z,16.81
2022-09-04T02:09:38.057Z,16.90
2022-09-04T02:10:18.370Z,16.90
2022-09-04T02:11:00.632Z,16.94
2022-09-04T02:11:33.013Z,17.02
2022-09-04T02:12:19.058Z,17.07
2022-09-04T02:13:08.716Z,17.04
2022-09-04T02:14:04.341Z,16.99
2022-09-04T02:14:58.302Z,16.94
2022-09-04T02:16:02.302Z,16.82
2022-09-04T02:17:02.838Z,16.93
2022-09-04T02:18:11.599Z,16.78
2022-09-04T02:18:53.267Z,16.57
2022-09-04T02:19:41.730Z,16.49
2022-09-04T02:20:27.188Z,16.62
2022-09-04T02:21:07.797Z,16.78
2022-09-04T02:22:04.086Z,16.84
2022-09-04T02:22:54.136Z,16.80
2022-09-04T02:23:45.542Z,16.80
2022-09-04T02:24:45.207Z,16.77
2022-09-04T02:25:38.057Z,16.80
2022-09-04T02:26:15.568Z,16.80
2022-09-04T02:26:52.910Z,16.66
2022-09-04T02:27:42.564Z,16.65
2022-09-04T02:28:39.735Z,16.72
2022-09-04T02:29:20.499Z,16.71
2022-09-04T02:30:04.033Z,16.76
2022-09-04T02:31:01.962Z,16.75
2022-09-04T02:31:50.766Z,16.80
2022-09-04T02:32:37.853Z,16.78
2022-09-04T02:33:35.523Z,16.84
2022-09-04T02:34:29.114Z,16.84
2022-09-04T02:35:19.157Z,16.66
2022-09-04T02:36:04.922Z,16.79
2022-09-04T02:37:07.582Z,16.82
2022-09-04T02:38:01.317Z,16.70
2022-09-04T02:38:42.933Z,16.71
2022-09-04T02:39:41.903Z,16.80
2022-09-04T02:40:13.783Z,16.73
2022-09-04T02:40:51.652Z,16.72
2022-09-04T02:41:35.036Z,16.72
2022-09-04T02:42:27.885Z,16.71
2022-09-04T02:43:21.395Z,16.59
2022-09-04T02:44:41.283Z,16.62
2022-09-04T02:45:25.731Z,16.56
2022-09-04T02:46:24.052Z,16.52
2022-09-04T02:47:17.390Z,16.64
2022-09-04T02:47:52.765Z,16.77
2022-09-04T02:48:50.001Z,16.62
2022-09-04T02:50:07.659Z,16.71
2022-09-04T02:50:58.188Z,16.56
2022-09-04T02:51:45.522Z,16.57
2022-09-04T02:52:41.956Z,16.57
2022-09-04T02:53:32.720Z,16.52
2022-09-04T02:54:24.478Z,16.70
2022-09-04T02:55:18.497Z,16.62
2022-09-04T02:55:59.447Z,16.72
2022-09-04T02:57:04.028Z,16.78
2022-09-04T02:58:15.275Z,16.78
2022-09-04T02:58:50.073Z,16.70
2022-09-04T02:59:50.386Z,16.79
2022-09-04T03:00:39.451Z,16.72
2022-09-04T03:01:24.017Z,16.70
2022-09-04T03:02:05.092Z,16.71
2022-09-04T03:03:02.930Z,16.61
2022-09-04T03:03:57.230Z,16.49
2022-09-04T03:04:52.668Z,16.50
2022-09-04T03:05:29.466Z,16.50
2022-09-04T03:06:48.693Z,16.54
2022-09-04T03:07:32.813Z,16.52
2022-09-04T03:08:07.651Z,16.58
2022-09-04T03:08:47.071Z,16.48
2022-09-04T03:09:44.189Z,16.51
2022-09-04T03:10:26.622Z,16.52
2022-09-04T03:11:23.426Z,16.39
2022-09-04T03:12:15.290Z,16.42
2022-09-04T03:13:09.130Z,16.55
2022-09-04T03:13:54.678Z,16.52
2022-09-04T03:15:03.528Z,16.58
2022-09-04T03:15:45.215Z,16.42
2022-09-04T03:16:35.904Z,16.44
2022-09-04T03:17:26.016Z,16.42
2022-09-04T03:18:25.627Z,16.47
2022-09-04T03:19:16.539Z,16.56
2022-09-04T03:20:00.683Z,16.58
2022-09-04T03:20:41.752Z,16.52
2022-09-04T03:21:21.025Z,16.44
2022-09-04T03:22:04.209Z,16.37
2022-09-04T03:22:54.522Z,16.33
2022-09-04T03:23:42.636Z,16.37
2022-09-04T03:24:26.345Z,16.41
2022-09-04T03:25:20.985Z,16.46
2022-09-04T03:26:01.811Z,16.47
2022-09-04T03:26:44.985Z,16.43
2022-09-04T03:27:19.077Z,16.44
2022-09-04T03:27:51.259Z,16.38
2022-09-04T03:28:34.726Z,16.30
2022-09-04T03:29:15.789Z,16.32
2022-09-04T03:30:01.412Z,16.21
2022-09-04T03:30:36.270Z,15.91
2022-09-04T03:31:29.687Z,15.96
2022-09-04T03:32:16.839Z,16.09
2022-09-04T03:33:15.360Z,16.12
2022-09-04T03:34:02.781Z,16.33
2022-09-04T03:34:46.883Z,16.20
2022-09-04T03:35:42.618Z,16.29
2022-09-04T03:36:20.799Z,16.23
2022-09-04T03:37:20.235Z,16.22
2022-09-04T03:38:33.054Z,16.18
2022-09-04T03:39:33.678Z,16.23
2022-09-04T03:40:08.745Z,16.19
2022-09-04T03:40:45.593Z,16.19
2022-09-04T03:41:55.164Z,16.18
2022-09-04T03:42:47.296Z,16.13
2022-09-04T03:43:31.640Z,16.14
2022-09-04T03:44:31.701Z,16.15
2022-09-04T03:45:06.261Z,16.19
2022-09-04T03:45:59.167Z,15.99
2022-09-04T03:46:40.245Z,16.05
2022-09-04T03:47:18.222Z,16.10
2022-09-04T03:47:59.101Z,16.14
2022-09-04T03:48:37.101Z,16.13
2022-09-04T03:49:12.032Z,16.01
2022-09-04T03:50:09.945Z,15.99
2022-09-04T03:50:55.151Z,16.00
2022-09-04T03:51:54.765Z,16.09
2022-09-04T03:52:45.971Z,15.99
2022-09-04T03:53:50.863Z,16.08
2022-09-04T03:55:10.640Z,15.99
2022-09-04T03:56:17.770Z,15.81
2022-09-04T03:57:07.637Z,15.92
2022-09-04T03:58:05.396Z,15.97
2022-09-04T03:59:05.585Z,16.10
2022-09-04T04:00:07.969Z,16.12
2022-09-04T04:00:57.172Z,16.15
2022-09-04T04:01:41.419Z,16.21
2022-09-04T04:02:34.943Z,16.15
2022-09-04T04:03:40.566Z,16.13
2022-09-04T04:04:35.258Z,16.18
2022-09-04T04:05:37.139Z,16.23
2022-09-04T04:06:08.886Z,16.34
2022-09-04T04:07:19.862Z,16.31
2022-09-04T04:07:57.612Z,16.33
2022-09-04T04:08:38.525Z,16.35
2022-09-04T04:09:22.566Z,16.39
2022-09-04T04:10:03.535Z,16.39
2022-09-04T04:11:10.788Z,16.38
2022-09-04T04:12:19.110Z,16.32
2022-09-04T04:12:53.776Z,16.33
2022-09-04T04:13:58.517Z,16.18
2022-09-04T04:15:07.837Z,16.17
2022-09-04T04:16:08.502Z,16.05
2022-09-04T04:16:55.811Z,16.07
2022-09-04T04:18:09.133Z,16.15
2022-09-04T04:19:15.706Z,16.26
2022-09-04T04:19:55.442Z,16.31
2022-09-04T04:20:34.777Z,16.37
2022-09-04T04:21:54.843Z,16.32
2022-09-04T04:23:08.108Z,16.29
2022-09-04T04:24:07.745Z,16.33
2022-09-04T04:25:01.262Z,16.32
2022-09-04T04:26:07.740Z,16.31
2022-09-04T04:26:50.589Z,16.36
2022-09-04T04:27:38.177Z,16.32
2022-09-04T04:28:38.045Z,16.16
2022-09-04T04:29:12.929Z,16.09
2022-09-04T04:30:05.178Z,16.20
2022-09-04T04:30:54.679Z,16.28
2022-09-04T04:32:13.537Z,16.19
2022-09-04T04:33:15.446Z,16.30
2022-09-04T04:33:53.089Z,16.26
2022-09-04T04:34:38.011Z,16.17
2022-09-04T04:35:16.134Z,16.11
2022-09-04T04:36:07.011Z,16.13
2022-09-04T04:36:41.854Z,15.99
2022-09-04T04:37:31.564Z,15.92
2022-09-04T04:38:31.353Z,15.94
2022-09-04T04:39:32.575Z,16.04
2022-09-04T04:40:27.912Z,16.12
2022-09-04T04:41:26.309Z,16.09
2022-09-04T04:42:07.057Z,16.11
2022-09-04T04:43:07.944Z,16.18
2022-09-04T04:43:48.546Z,16.07
2022-09-04T04:45:02.532Z,16.06
2022-09-04T04:45:59.266Z,16.00
2022-09-04T04:46:51.546Z,16.02
2022-09-04T04:47:58.844Z,16.13
2022-09-04T04:48:52.337Z,15.98
2022-09-04T04:49:34.200Z,15.90
2022-09-04T04:50:11.811Z,15.91
2022-09-04T04:51:23.245Z,15.96
2022-09-04T04:52:15.865Z,15.92
2022-09-04T04:53:01.094Z,16.03
2022-09-04T04:53:57.891Z,16.09
2022-09-04T04:55:07.580Z,16.16
2022-09-04T04:55:50.399Z,16.07
2022-09-04T04:56:48.239Z,16.17
2022-09-04T04:57:36.541Z,16.22
2022-09-04T04:58:26.153Z,16.10
2022-09-04T04:59:07.145Z,16.00
2022-09-04T05:00:08.918Z,16.08
2022-09-04T05:00:58.811Z,16.04
2022-09-04T05:02:00.678Z,15.95
2022-09-04T05:02:42.169Z,15.96
2022-09-04T05:03:23.068Z,16.04
2022-09-04T05:04:34.788Z,16.06
2022-09-04T05:05:15.919Z,16.05
2022-09-04T05:06:18.163Z,16.09
2022-09-04T05:07:17.941Z,16.09
2022-09-04T05:07:55.898Z,16.09
2022-09-04T05:08:50.810Z,16.05
2022-09-04T05:09:40.079Z,16.03
2022-09-04T05:10:37.898Z,16.14
2022-09-04T05:11:35.256Z,15.99
2022-09-04T05:12:25.348Z,16.00
2022-09-04T05:13:39.478Z,16.01
2022-09-04T05:14:37.533Z,16.13
2022-09-04T05:15:32.145Z,16.08
2022-09-04T05:16:12.502Z,16.03
2022-09-04T05:17:20.288Z,16.16
2022-09-04T05:18:21.540Z,16.13
2022-09-04T05:19:02.065Z,16.26
2022-09-04T05:19:45.146Z,16.19
2022-09-04T05:20:51.081Z,16.21
2022-09-04T05:21:50.668Z,16.22
2022-09-04T05:22:35.317Z,16.26
2022-09-04T05:23:38.351Z,16.03
2022-09-04T05:24:51.928Z,16.07
2022-09-04T05:25:50.647Z,16.04
2022-09-04T05:26:48.382Z,16.12
2022-09-04T05:27:20.247Z,16.09
2022-09-04T05:28:26.160Z,16.01
2022-09-04T05:29:17.698Z,16.15
2022-09-04T05:29:55.856Z,16.13
2022-09-04T05:31:02.934Z,16.17
2022-09-04T05:31:40.576Z,16.18
2022-09-04T05:32:30.663Z,16.26
2022-09-04T05:33:40.377Z,16.23
2022-09-04T05:34:13.001Z,16.28
2022-09-04T05:34:51.729Z,16.22
2022-09-04T05:35:45.444Z,16.26
2022-09-04T05:36:41.337Z,16.34
2022-09-04T05:37:42.037Z,16.42
2022-09-04T05:38:20.244Z,16.51
2022-09-04T05:39:13.944Z,16.41
2022-09-04T05:40:19.653Z,16.36
2022-09-04T05:41:05.614Z,16.41
2022-09-04T05:42:06.806Z,16.26
2022-09-04T05:42:43.287Z,16.38
2022-09-04T05:43:40.052Z,16.54
2022-09-04T05:44:30.155Z,16.56
2022-09-04T05:45:23.944Z,16.54
2022-09-04T05:46:30.469Z,16.64
2022-09-04T05:47:38.770Z,16.73
2022-09-04T05:48:10.603Z,16.77
2022-09-04T05:49:15.174Z,16.72
2022-09-04T05:50:08.355Z,16.59
2022-09-04T05:50:49.666Z,16.64
2022-09-04T05:51:38.884Z,16.69
2022-09-04T05:52:20.140Z,16.76
2022-09-04T05:53:10.847Z,16.76
2022-09-04T05:54:25.878Z,16.72
2022-09-04T05:55:12.551Z,16.87
2022-09-04T05:56:04.735Z,16.94
2022-09-04T05:57:10.050Z,16.85
2022-09-04T05:57:59.043Z,16.99
2022-09-04T05:58:30.946Z,17.07
2022-09-04T05:59:32.115Z,17.23
2022-09-04T06:00:19.273Z,17.43
2022-09-04T06:01:16.126Z,17.33
2022-09-04T06:01:59.887Z,17.30
2022-09-04T06:03:29.280Z,17.39
2022-09-04T06:04:23.751Z,17.55
2022-09-04T06:05:04.669Z,17.63
2022-09-04T06:05:57.477Z,17.46
2022-09-04T06:06:50.417Z,17.32
2022-09-04T06:07:27.749Z,17.48
2022-09-04T06:08:11.861Z,17.66
2022-09-04T06:09:01.550Z,17.74
2022-09-04T06:09:51.299Z,17.74
2022-09-04T06:10:35.082Z,17.78
2022-09-04T06:11:09.666Z,17.85
2022-09-04T06:11:51.452Z,17.84
2022-09-04T06:12:23.330Z,17.82
2022-09-04T06:12:55.212Z,17.70
2022-09-04T06:13:39.494Z,17.64
2022-09-04T06:14:29.693Z,17.79
2022-09-04T06:15:26.049Z,17.88
2022-09-04T06:16:26.114Z,17.97
2022-09-04T06:17:04.034Z,17.95
2022-09-04T06:17:51.167Z,17.90
2022-09-04T06:18:40.720Z,17.87
2022-09-04T06:19:47.754Z,17.87
2022-09-04T06:20:33.420Z,17.97
2022-09-04T06:21:27.124Z,17.98
2022-09-04T06:22:05.390Z,17.97
2022-09-04T06:22:57.054Z,17.94
2022-09-04T06:24:07.845Z,17.68
2022-09-04T06:25:17.579Z,17.68
2022-09-04T06:26:04.800Z,17.83
2022-09-04T06:26:56.492Z,17.67
2022-09-04T06:28:06.247Z,17.71
2022-09-04T06:29:05.980Z,17.62
2022-09-04T06:29:56.048Z,17.78
2022-09-04T06:30:43.305Z,17.62
2022-09-04T06:31:21.038Z,17.51
2022-09-04T06:32:11.077Z,17.63
2022-09-04T06:32:43.221Z,17.78
2022-09-04T06:33:44.702Z,17.89
2022-09-04T06:34:34.719Z,17.74
2022-09-04T06:35:27.685Z,17.86
2022-09-04T06:36:05.621Z,17.85
2022-09-04T06:36:48.693Z,17.94
2022-09-04T06:37:32.406Z,17.90
2022-09-04T06:38:29.308Z,17.95
2022-09-04T06:39:45.086Z,18.07
2022-09-04T06:40:52.683Z,18.02
2022-09-04T06:41:54.505Z,18.01
2022-09-04T06:42:48.182Z,17.99
2022-09-04T06:43:40.581Z,17.99
2022-09-04T06:44:29.499Z,17.93
2022-09-04T06:45:25.247Z,17.77
2022-09-04T06:46:26.980Z,17.72
2022-09-04T06:47:17.318Z,17.73
2022-09-04T06:48:00.176Z,17.61
2022-09-04T06:48:38.547Z,17.56
2022-09-04T06:49:47.504Z,17.62
2022-09-04T06:50:22.941Z,17.62
2022-09-04T06:51:11.095Z,17.71
2022-09-04T06:51:55.050Z,17.76
2022-09-04T06:52:46.113Z,17.75
2022-09-04T06:53:42.822Z,17.71
2022-09-04T06:54:21.212Z,17.74
2022-09-04T06:55:02.931Z,17.71
2022-09-04T06:55:46.036Z,17.65
2022-09-04T06:56:26.911Z,17.66
2022-09-04T06:57:26.358Z,17.78
2022-09-04T06:58:16.959Z,17.60
2022-09-04T06:59:10.358Z,17.63
2022-09-04T07:00:01.923Z,17.69
2022-09-04T07:01:02.286Z,17.71
2022-09-04T07:02:17.892Z,17.82
2022-09-04T07:02:59.597Z,17.82
2022-09-04T07:03:40.658Z,17.88
2022-09-04T07:04:39.799Z,17.97
2022-09-04T07:05:14.937Z,18.04
2022-09-04T07:06:10.909Z,18.03
2022-09-04T07:06:54.695Z,18.05
2022-09-04T07:07:32.339Z,18.15
2022-09-04T07:08:13.198Z,18.18
2022-09-04T07:09:05.073Z,18.19
2022-09-04T07:09:46.765Z,18.24
2022-09-04T07:10:27.748Z,18.26
2022-09-04T07:11:47.414Z,18.26
2022-09-04T07:12:38.863Z,18.22
2022-09-04T07:13:37.862Z,18.25
2022-09-04T07:14:33.958Z,18.26
2022-09-04T07:15:12.639Z,18.37
2022-09-04T07:15:58.266Z,18.35
2022-09-04T07:17:16.109Z,18.26
2022-09-04T07:17:49.348Z,18.31
2022-09-04T07:18:34.543Z,18.26
2022-09-04T07:19:28.605Z,18.21
2022-09-04T07:20:32.426Z,18.24
2022-09-04T07:21:30.486Z,18.20
2022-09-04T07:22:08.142Z,18.21
2022-09-04T07:22:45.979Z,18.21
2022-09-04T07:23:36.354Z,18.31
2022-09-04T07:25:02.003Z,18.34
2022-09-04T07:25:44.403Z,18.23
2022-09-04T07:26:32.214Z,18.21
2022-09-04T07:27:18.308Z,18.26
2022-09-04T07:27:53.123Z,18.24
2022-09-04T07:29:00.003Z,18.32
2022-09-04T07:29:37.086Z,18.37
2022-09-04T07:30:11.785Z,18.41
2022-09-04T07:30:53.969Z,18.42
2022-09-04T07:31:35.068Z,18.36
2022-09-04T07:32:12.646Z,18.35
2022-09-04T07:32:54.972Z,18.34
2022-09-04T07:33:50.484Z,18.33
2022-09-04T07:34:51.206Z,18.43
2022-09-04T07:35:37.037Z,18.43
2022-09-04T07:36:20.966Z,18.38
2022-09-04T07:37:30.383Z,18.45
2022-09-04T07:38:24.898Z,18.36
2022-09-04T07:39:01.743Z,18.37
2022-09-04T07:39:37.548Z,18.42
2022-09-04T07:40:31.778Z,18.45
2022-09-04T07:41:17.687Z,18.35
2022-09-04T07:42:04.290Z,18.37
2022-09-04T07:42:48.275Z,18.41
2022-09-04T07:43:54.818Z,18.38
2022-09-04T07:44:39.085Z,18.40
2022-09-04T07:45:36.579Z,18.45
2022-09-04T07:46:33.502Z,18.49
2022-09-04T07:47:30.440Z,18.52
2022-09-04T07:48:22.200Z,18.46
2022-09-04T07:49:10.176Z,18.49
2022-09-04T07:50:00.807Z,18.53
2022-09-04T07:50:38.101Z,18.64
2022-09-04T07:51:16.930Z,18.59
2022-09-04T07:51:58.963Z,18.45
2022-09-04T07:52:50.367Z,18.46
2022-09-04T07:53:31.869Z,18.59
2022-09-04T07:54:33.295Z,18.60
2022-09-04T07:55:05.056Z,18.56
2022-09-04T07:55:46.901Z,18.64
2022-09-04T07:56:49.395Z,18.71
2022-09-04T07:57:24.041Z,18.81
2022-09-04T07:58:38.478Z,18.78
2022-09-04T07:59:29.452Z,18.78
2022-09-04T08:00:18.263Z,18.84
2022-09-04T08:01:15.327Z,18.85
2022-09-04T08:02:19.553Z,18.85
2022-09-04T08:02:57.095Z,18.98
2022-09-04T08:03:54.434Z,19.07
2022-09-04T08:04:46.287Z,19.04
2022-09-04T08:05:27.772Z,19.03
2022-09-04T08:06:14.127Z,18.98
2022-09-04T08:06:56.944Z,19.08
2022-09-04T08:08:08.211Z,19.08
2022-09-04T08:08:58.901Z,19.15
2022-09-04T08:10:24.152Z,19.22
2022-09-04T08:11:15.076Z,19.16
2022-09-04T08:12:00.157Z,19.24
2022-09-04T08:12:32.030Z,19.29
2022-09-04T08:13:14.155Z,19.17
2022-09-04T08:14:00.447Z,19.19
2022-09-04T08:14:37.077Z,19.09
2022-09-04T08:15:24.435Z,19.12
2022-09-04T08:16:14.436Z,19.16
2022-09-04T08:17:25.519Z,19.22
2022-09-04T08:18:11.369Z,19.30
2022-09-04T08:19:03.457Z,19.37
2022-09-04T08:19:58.282Z,19.44
2022-09-04T08:21:05.241Z,19.35
2022-09-04T08:21:41.253Z,19.36
2022-09-04T08:22:34.893Z,19.39
2022-09-04T08:23:29.662Z,19.42
2022-09-04T08:24:16.534Z,19.38
2022-09-04T08:24:55.514Z,19.48
2022-09-04T08:25:45.785Z,19.61
2022-09-04T08:26:39.465Z,19.62
2022-09-04T08:28:00.066Z,19.66
2022-09-04T08:28:47.887Z,19.63
2022-09-04T08:29:54.905Z,19.63
2022-09-04T08:30:35.953Z,19.65
2022-09-04T08:31:21.232Z,19.84
2022-09-04T08:31:55.412Z,19.86
2022-09-04T08:32:38.093Z,19.91
2022-09-04T08:33:10.301Z,19.98
2022-09-04T08:34:24.530Z,19.89
2022-09-04T08:35:05.744Z,19.94
2022-09-04T08:35:43.240Z,20.22
2022-09-04T08:36:37.985Z,20.27
2022-09-04T08:37:39.929Z,20.39
2022-09-04T08:38:26.957Z,20.33
2022-09-04T08:39:23.185Z,20.02
2022-09-04T08:40:25.778Z,20.05
2022-09-04T08:40:57.802Z,20.21
2022-09-04T08:41:52.244Z,20.08
2022-09-04T08:42:37.075Z,19.97
2022-09-04T08:43:20.803Z,20.13
2022-09-04T08:44:23.501Z,20.02
2022-09-04T08:45:26.096Z,19.95
2022-09-04T08:46:29.974Z,19.89
2022-09-04T08:47:41.284Z,19.96
2022-09-04T08:48:16.733Z,19.94
2022-09-04T08:49:10.512Z,20.03
2022-09-04T08:49:45.283Z,20.16
2022-09-04T08:50:46.266Z,20.10
2022-09-04T08:51:59.182Z,20.16
2022-09-04T08:52:46.083Z,20.24
2022-09-04T08:53:44.052Z,20.37
2022-09-04T08:54:34.391Z,20.50
2022-09-04T08:56:18.591Z,20.38
2022-09-04T08:57:56.697Z,20.90
2022-09-04T08:59:24.724Z,21.02
2022-09-04T09:00:11.609Z,20.87
2022-09-04T09:01:03.366Z,21.00
2022-09-04T09:01:35.460Z,21.10
2022-09-04T09:02:28.921Z,21.16
2022-09-04T09:03:22.652Z,21.11
2022-09-04T09:04:32.677Z,21.18
2022-09-04T09:05:23.976Z,21.29
2022-09-04T09:06:07.012Z,21.44
2022-09-04T09:06:51.257Z,21.39
2022-09-04T09:07:55.615Z,21.39
2022-09-04T09:09:10.742Z,21.31
2022-09-04T09:10:04.261Z,21.43
2022-09-04T09:11:11.200Z,21.45
2022-09-04T09:12:10.930Z,21.54
2022-09-04T09:12:57.980Z,21.60
2022-09-04T09:14:01.813Z,21.65
2022-09-04T09:14:49.551Z,21.68
2022-09-04T09:15:51.832Z,21.61
2022-09-04T09:16:32.775Z,21.82
2022-09-04T09:17:13.259Z,21.68
2022-09-04T09:18:02.656Z,21.67
2022-09-04T09:19:00.351Z,21.70
2022-09-04T09:19:56.493Z,21.81
2022-09-04T09:20:38.311Z,21.92
2022-09-04T09:21:58.148Z,21.98
2022-09-04T09:23:08.153Z,21.98
2022-09-04T09:24:03.870Z,22.04
2022-09-04T09:24:42.017Z,21.92
2022-09-04T09:25:24.263Z,21.78
2022-09-04T09:26:18.144Z,21.91
2022-09-04T09:26:49.998Z,21.98
2022-09-04T09:27:52.297Z,22.00
2022-09-04T09:28:39.819Z,22.00
2022-09-04T09:29:48.731Z,22.11
2022-09-04T09:30:22.532Z,22.11
2022-09-04T09:31:28.748Z,22.12
2022-09-04T09:32:38.648Z,22.14
2022-09-04T09:33:35.093Z,21.95
2022-09-04T09:34:12.785Z,21.66
2022-09-04T09:35:09.863Z,21.74
2022-09-04T09:36:07.672Z,21.70
2022-09-04T09:36:48.611Z,21.64
2022-09-04T09:37:31.581Z,21.64
2022-09-04T09:38:19.990Z,21.68
2022-09-04T09:39:16.451Z,21.72
2022-09-04T09:40:10.054Z,21.78
2022-09-04T09:40:56.078Z,21.74
2022-09-04T09:41:42.619Z,21.76
2022-09-04T09:42:32.940Z,21.58
2022-09-04T09:43:42.240Z,21.66
2022-09-04T09:44:35.954Z,21.65
2022-09-04T09:45:23.247Z,21.74
2022-09-04T09:46:01.030Z,21.59
2022-09-04T09:46:51.501Z,21.65
2022-09-04T09:47:38.764Z,21.77
2022-09-04T09:48:29.328Z,21.74
2022-09-04T09:49:32.359Z,21.52
2022-09-04T09:50:07.211Z,21.48
2022-09-04T09:51:04.251Z,21.58
2022-09-04T09:51:59.485Z,21.64
2022-09-04T09:53:08.657Z,21.61
2022-09-04T09:53:44.990Z,21.78
2022-09-04T09:54:49.738Z,21.90
2022-09-04T09:56:04.148Z,21.97
2022-09-04T09:56:55.657Z,22.05
2022-09-04T09:57:45.752Z,21.74
2022-09-04T09:58:39.170Z,21.97
2022-09-04T09:59:48.637Z,21.80
2022-09-04T10:00:25.420Z,22.12
2022-09-04T10:01:08.724Z,22.28
2022-09-04T10:02:13.126Z,22.41
2022-09-04T10:03:27.634Z,22.46
2022-09-04T10:04:21.556Z,22.65
2022-09-04T10:05:19.307Z,22.46
2022-09-04T10:06:00.201Z,22.39
2022-09-04T10:06:51.014Z,22.53
2022-09-04T10:07:51.022Z,22.60
2022-09-04T10:08:41.204Z,22.71
2022-09-04T10:09:15.829Z,22.85
2022-09-04T10:10:08.766Z,22.94
2022-09-04T10:11:08.915Z,23.00
2022-09-04T10:12:25.970Z,23.01
2022-09-04T10:13:32.241Z,23.12
2022-09-04T10:14:31.545Z,23.16
2022-09-04T10:15:16.549Z,23.20
2022-09-04T10:16:25.963Z,23.22
2022-09-04T10:17:17.007Z,23.07
2022-09-04T10:18:07.105Z,22.99
2022-09-04T10:19:16.530Z,23.04
2022-09-04T10:20:22.596Z,23.06
2022-09-04T10:21:32.130Z,22.99
2022-09-04T10:22:41.385Z,23.05
2022-09-04T10:23:25.316Z,23.05
2022-09-04T10:24:22.057Z,23.07
2022-09-04T10:25:32.647Z,22.97
2022-09-04T10:26:19.784Z,23.08
2022-09-04T10:27:12.388Z,23.12
2022-09-04T10:28:22.315Z,23.11
2022-09-04T10:28:57.185Z,23.12
2022-09-04T10:29:50.631Z,23.22
2022-09-04T10:30:24.460Z,23.23
2022-09-04T10:31:27.064Z,23.23
2022-09-04T10:32:19.392Z,23.16
2022-09-04T10:33:48.452Z,23.15
2022-09-04T10:34:29.753Z,23.28
2022-09-04T10:35:10.863Z,23.31
2022-09-04T10:36:03.798Z,23.37
2022-09-04T10:36:59.779Z,23.37
2022-09-04T10:37:50.341Z,23.28
2022-09-04T10:39:03.431Z,23.27
2022-09-04T10:40:09.249Z,23.17
2022-09-04T10:41:15.667Z,23.24
2022-09-04T10:42:01.309Z,23.25
2022-09-04T10:42:50.423Z,23.20
2022-09-04T10:43:44.446Z,23.32
2022-09-04T10:44:31.647Z,23.30
2022-09-04T10:45:31.595Z,23.45
2022-09-04T10:46:20.706Z,23.42
2022-09-04T10:47:28.068Z,23.51
2022-09-04T10:48:31.118Z,23.44
2022-09-04T10:49:45.363Z,23.63
2022-09-04T10:50:46.305Z,23.70
2022-09-04T10:51:37.824Z,23.75
2022-09-04T10:52:19.698Z,23.71
2022-09-04T10:53:31.359Z,23.67
2022-09-04T10:54:30.082Z,23.66
2022-09-04T10:55:13.876Z,23.57
2022-09-04T10:56:05.827Z,23.41
2022-09-04T10:56:56.197Z,23.34
2022-09-04T10:57:40.191Z,23.09
2022-09-04T10:58:34.084Z,23.15
2022-09-04T10:59:44.454Z,23.22
2022-09-04T11:00:18.488Z,23.24
2022-09-04T11:01:03.450Z,23.14
2022-09-04T11:01:41.414Z,23.14
2022-09-04T11:02:47.535Z,23.09
2022-09-04T11:03:22.370Z,23.04
2022-09-04T11:04:13.890Z,23.02